Markham, Washington
Current Conditions -  °F | °C
As of 4:53 PM on Friday 19 Dec 2014 (Local Time) from KHQM Reporting Station
Overcast Overcast  
Wind Chill: 43°   Ceiling: 6500
Heat Index: 48°   Visibility: 9mi
Dew Point: 44°   Wind: 12mph
Humidity: 86%   Direction: 110°ESE
Pressure: 29.92"   Gusts: NA
Location:  47.1445°N, 123.771°W
Report Text: KHQM 200053Z AUTO 11010KT 9SM OVC065 09/07 A2992 RMK AO2 RAE31 SLP135 P0001 T00890067
Loading
Personal Weather Stations






























Interactive Weather Map New forecast layout! Learn more

10-Day Weather Forecast

Advertisements
Track Severe Weather on mobile